sensor_id;sensor_type;location;lat;lon;timestamp;pressure;altitude;pressure_sealevel;temperature;humidity
74722;BME280;63470;49.826;6.740;2023-03-14T00:01:19;98169.76;;;11.93;63.76
74722;BME280;63470;49.826;6.740;2023-03-14T00:03:47;98167.22;;;11.97;63.69
74722;BME280;63470;49.826;6.740;2023-03-14T00:06:18;98156.20;;;12.00;63.67
74722;BME280;63470;49.826;6.740;2023-03-14T00:08:55;98171.95;;;12.02;63.67
74722;BME280;63470;49.826;6.740;2023-03-14T00:11:20;98163.78;;;12.06;63.65
74722;BME280;63470;49.826;6.740;2023-03-14T00:13:51;98174.77;;;12.08;63.63
74722;BME280;63470;49.826;6.740;2023-03-14T00:16:21;98175.24;;;12.09;63.65
74722;BME280;63470;49.826;6.740;2023-03-14T00:18:52;98165.67;;;12.08;63.65
74722;BME280;63470;49.826;6.740;2023-03-14T00:21:22;98149.78;;;12.08;63.67
74722;BME280;63470;49.826;6.740;2023-03-14T00:23:53;98153.81;;;12.06;63.71
74722;BME280;63470;49.826;6.740;2023-03-14T00:26:24;98145.76;;;12.06;63.70
74722;BME280;63470;49.826;6.740;2023-03-14T00:28:55;98137.66;;;12.02;63.75
74722;BME280;63470;49.826;6.740;2023-03-14T00:31:25;98141.72;;;11.99;63.81
74722;BME280;63470;49.826;6.740;2023-03-14T00:33:56;98136.22;;;11.97;63.77
74722;BME280;63470;49.826;6.740;2023-03-14T00:36:30;98149.50;;;11.95;63.78
74722;BME280;63470;49.826;6.740;2023-03-14T00:38:58;98150.33;;;11.96;63.76
74722;BME280;63470;49.826;6.740;2023-03-14T00:41:28;98155.17;;;11.98;63.74
74722;BME280;63470;49.826;6.740;2023-03-14T00:43:59;98164.84;;;11.92;63.64
74722;BME280;63470;49.826;6.740;2023-03-14T00:46:29;98177.39;;;11.68;63.74
74722;BME280;63470;49.826;6.740;2023-03-14T00:49:00;98173.42;;;11.39;63.99
74722;BME280;63470;49.826;6.740;2023-03-14T00:51:30;98168.19;;;11.17;64.23
74722;BME280;63470;49.826;6.740;2023-03-14T00:54:01;98163.48;;;11.02;64.41
74722;BME280;63470;49.826;6.740;2023-03-14T00:56:32;98161.70;;;10.93;64.51
74722;BME280;63470;49.826;6.740;2023-03-14T00:59:02;98160.09;;;10.86;64.56
74722;BME280;63470;49.826;6.740;2023-03-14T01:01:33;98156.08;;;10.82;64.57
74722;BME280;63470;49.826;6.740;2023-03-14T01:04:06;98155.12;;;10.80;64.60
74722;BME280;63470;49.826;6.740;2023-03-14T01:06:34;98154.08;;;10.81;64.57
74722;BME280;63470;49.826;6.740;2023-03-14T01:09:05;98155.11;;;10.82;64.56
74722;BME280;63470;49.826;6.740;2023-03-14T01:11:35;98151.78;;;10.84;64.51
74722;BME280;63470;49.826;6.740;2023-03-14T01:14:06;98156.59;;;10.88;64.45
74722;BME280;63470;49.826;6.740;2023-03-14T01:16:37;98148.97;;;10.92;64.40
74722;BME280;63470;49.826;6.740;2023-03-14T01:19:07;98157.09;;;10.93;64.35
74722;BME280;63470;49.826;6.740;2023-03-14T01:21:38;98164.97;;;10.94;64.34
74722;BME280;63470;49.826;6.740;2023-03-14T01:24:11;98174.45;;;10.96;64.33
74722;BME280;63470;49.826;6.740;2023-03-14T01:26:39;98177.77;;;11.02;64.30
74722;BME280;63470;49.826;6.740;2023-03-14T01:29:09;98176.35;;;11.10;64.15
74722;BME280;63470;49.826;6.740;2023-03-14T01:31:40;98177.37;;;11.18;64.06
74722;BME280;63470;49.826;6.740;2023-03-14T01:34:10;98168.64;;;11.22;63.98
74722;BME280;63470;49.826;6.740;2023-03-14T01:36:41;98159.27;;;11.26;63.94
74722;BME280;63470;49.826;6.740;2023-03-14T01:39:11;98158.98;;;11.30;63.90
74722;BME280;63470;49.826;6.740;2023-03-14T01:41:44;98156.78;;;11.33;63.88
74722;BME280;63470;49.826;6.740;2023-03-14T01:44:15;98157.62;;;11.33;63.89
74722;BME280;63470;49.826;6.740;2023-03-14T01:46:46;98155.96;;;11.34;63.94
74722;BME280;63470;49.826;6.740;2023-03-14T01:49:28;98154.17;;;11.39;63.84
74722;BME280;63470;49.826;6.740;2023-03-14T01:51:54;98163.59;;;11.44;63.75
74722;BME280;63470;49.826;6.740;2023-03-14T01:54:22;98151.84;;;11.48;63.68
74722;BME280;63470;49.826;6.740;2023-03-14T01:56:50;98158.34;;;11.50;63.67
74722;BME280;63470;49.826;6.740;2023-03-14T01:59:16;98149.49;;;11.50;63.69
74722;BME280;63470;49.826;6.740;2023-03-14T02:01:47;98139.36;;;11.49;63.73
74722;BME280;63470;49.826;6.740;2023-03-14T02:04:19;98136.70;;;11.49;63.77
74722;BME280;63470;49.826;6.740;2023-03-14T02:07:18;98130.23;;;11.49;63.78
74722;BME280;63470;49.826;6.740;2023-03-14T02:09:19;98125.27;;;11.47;63.78
74722;BME280;63470;49.826;6.740;2023-03-14T02:11:50;98116.19;;;11.43;63.85
74722;BME280;63470;49.826;6.740;2023-03-14T02:14:34;98117.66;;;11.40;63.96
74722;BME280;63470;49.826;6.740;2023-03-14T02:16:51;98110.55;;;11.39;63.96
74722;BME280;63470;49.826;6.740;2023-03-14T02:19:42;98114.91;;;11.34;64.00
74722;BME280;63470;49.826;6.740;2023-03-14T02:22:12;98118.59;;;11.29;64.01
74722;BME280;63470;49.826;6.740;2023-03-14T02:27:09;98090.52;;;11.10;63.94
74722;BME280;63470;49.826;6.740;2023-03-14T02:29:24;98105.66;;;10.92;63.99
74722;BME280;63470;49.826;6.740;2023-03-14T02:31:54;98099.80;;;10.71;64.17
74722;BME280;63470;49.826;6.740;2023-03-14T02:34:24;98098.24;;;10.53;64.30
74722;BME280;63470;49.826;6.740;2023-03-14T02:36:55;98099.33;;;10.40;64.43
74722;BME280;63470;49.826;6.740;2023-03-14T02:39:35;98092.26;;;10.31;64.50
74722;BME280;63470;49.826;6.740;2023-03-14T02:41:56;98095.25;;;10.26;64.53
74722;BME280;63470;49.826;6.740;2023-03-14T02:44:26;98096.55;;;10.22;64.53
74722;BME280;63470;49.826;6.740;2023-03-14T02:46:57;98094.16;;;10.21;64.56
74722;BME280;63470;49.826;6.740;2023-03-14T02:49:31;98088.66;;;10.19;64.59
74722;BME280;63470;49.826;6.740;2023-03-14T02:51:58;98096.67;;;10.17;64.58
74722;BME280;63470;49.826;6.740;2023-03-14T02:54:31;98086.05;;;10.14;64.53
74722;BME280;63470;49.826;6.740;2023-03-14T02:56:59;98076.28;;;10.12;64.54
74722;BME280;63470;49.826;6.740;2023-03-14T02:59:30;98079.27;;;10.10;64.58
74722;BME280;63470;49.826;6.740;2023-03-14T03:02:03;98084.25;;;10.09;64.58
74722;BME280;63470;49.826;6.740;2023-03-14T03:04:31;98083.84;;;10.08;64.50
74722;BME280;63470;49.826;6.740;2023-03-14T03:07:02;98076.03;;;10.06;64.47
74722;BME280;63470;49.826;6.740;2023-03-14T03:09:35;98071.66;;;10.04;64.49
74722;BME280;63470;49.826;6.740;2023-03-14T03:12:03;98069.41;;;10.02;64.49
74722;BME280;63470;49.826;6.740;2023-03-14T03:14:33;98063.14;;;10.00;64.50
74722;BME280;63470;49.826;6.740;2023-03-14T03:17:04;98052.30;;;9.98;64.48
74722;BME280;63470;49.826;6.740;2023-03-14T03:19:35;98044.69;;;9.97;64.46
74722;BME280;63470;49.826;6.740;2023-03-14T03:22:10;98050.14;;;9.96;64.41
74722;BME280;63470;49.826;6.740;2023-03-14T03:24:36;98049.12;;;9.94;64.40
74722;BME280;63470;49.826;6.740;2023-03-14T03:27:06;98044.58;;;9.93;64.42
74722;BME280;63470;49.826;6.740;2023-03-14T03:29:37;98039.47;;;9.93;64.42
74722;BME280;63470;49.826;6.740;2023-03-14T03:32:07;98036.08;;;9.93;64.40
74722;BME280;63470;49.826;6.740;2023-03-14T03:34:38;98034.77;;;9.93;64.37
74722;BME280;63470;49.826;6.740;2023-03-14T03:37:08;98030.39;;;9.93;64.37
74722;BME280;63470;49.826;6.740;2023-03-14T03:39:44;98035.57;;;9.94;64.36
74722;BME280;63470;49.826;6.740;2023-03-14T03:42:09;98029.08;;;9.95;64.33
74722;BME280;63470;49.826;6.740;2023-03-14T03:44:42;98022.56;;;9.95;64.34
74722;BME280;63470;49.826;6.740;2023-03-14T03:47:10;98017.77;;;9.95;64.34
74722;BME280;63470;49.826;6.740;2023-03-14T03:49:43;98018.35;;;9.95;64.35
74722;BME280;63470;49.826;6.740;2023-03-14T03:52:11;98011.44;;;9.95;64.35
74722;BME280;63470;49.826;6.740;2023-03-14T03:54:42;98020.11;;;9.94;64.33
74722;BME280;63470;49.826;6.740;2023-03-14T03:57:12;98017.42;;;9.92;64.31
74722;BME280;63470;49.826;6.740;2023-03-14T03:59:43;98010.16;;;9.89;64.32
74722;BME280;63470;49.826;6.740;2023-03-14T04:02:16;98020.98;;;9.85;64.35
74722;BME280;63470;49.826;6.740;2023-03-14T04:04:44;98010.33;;;9.82;64.40
74722;BME280;63470;49.826;6.740;2023-03-14T04:07:15;98013.20;;;9.81;64.43
74722;BME280;63470;49.826;6.740;2023-03-14T04:09:46;98015.02;;;9.79;64.41
74722;BME280;63470;49.826;6.740;2023-03-14T04:12:16;98018.41;;;9.77;64.40
74722;BME280;63470;49.826;6.740;2023-03-14T04:14:47;98025.70;;;9.74;64.40
74722;BME280;63470;49.826;6.740;2023-03-14T04:17:18;98025.29;;;9.73;64.39
74722;BME280;63470;49.826;6.740;2023-03-14T04:19:56;98024.17;;;9.70;64.43
74722;BME280;63470;49.826;6.740;2023-03-14T04:22:18;98024.69;;;9.68;64.48
74722;BME280;63470;49.826;6.740;2023-03-14T04:24:49;98022.38;;;9.66;64.49
74722;BME280;63470;49.826;6.740;2023-03-14T04:27:19;98014.31;;;9.65;64.48
74722;BME280;63470;49.826;6.740;2023-03-14T04:29:50;98016.39;;;9.63;64.45
74722;BME280;63470;49.826;6.740;2023-03-14T04:32:21;98020.56;;;9.59;64.41
74722;BME280;63470;49.826;6.740;2023-03-14T04:34:51;98023.77;;;9.56;64.48
74722;BME280;63470;49.826;6.740;2023-03-14T04:37:22;98023.39;;;9.54;64.51
74722;BME280;63470;49.826;6.740;2023-03-14T04:39:53;98011.94;;;9.51;64.53
74722;BME280;63470;49.826;6.740;2023-03-14T04:42:26;98010.64;;;9.49;64.59
74722;BME280;63470;49.826;6.740;2023-03-14T04:44:54;98008.83;;;9.49;64.58
74722;BME280;63470;49.826;6.740;2023-03-14T04:47:25;98008.91;;;9.47;64.61
74722;BME280;63470;49.826;6.740;2023-03-14T04:49:55;98006.13;;;9.48;64.63
74722;BME280;63470;49.826;6.740;2023-03-14T04:52:26;98003.50;;;9.48;64.60
74722;BME280;63470;49.826;6.740;2023-03-14T04:54:56;97990.73;;;9.48;64.58
74722;BME280;63470;49.826;6.740;2023-03-14T04:57:26;97988.50;;;9.48;64.56
74722;BME280;63470;49.826;6.740;2023-03-14T04:59:57;97983.23;;;9.48;64.60
74722;BME280;63470;49.826;6.740;2023-03-14T05:02:28;97985.59;;;9.49;64.57
74722;BME280;63470;49.826;6.740;2023-03-14T05:04:58;97975.12;;;9.51;64.52
74722;BME280;63470;49.826;6.740;2023-03-14T05:07:32;97975.48;;;9.52;64.51
74722;BME280;63470;49.826;6.740;2023-03-14T05:10:00;97975.39;;;9.52;64.51
74722;BME280;63470;49.826;6.740;2023-03-14T05:12:30;97965.98;;;9.53;64.49
74722;BME280;63470;49.826;6.740;2023-03-14T05:15:01;97960.66;;;9.54;64.52
74722;BME280;63470;49.826;6.740;2023-03-14T05:17:34;97953.29;;;9.55;64.52
74722;BME280;63470;49.826;6.740;2023-03-14T05:20:08;97956.45;;;9.56;64.52
74722;BME280;63470;49.826;6.740;2023-03-14T05:22:33;97948.77;;;9.56;64.50
74722;BME280;63470;49.826;6.740;2023-03-14T05:25:04;97941.44;;;9.56;64.50
74722;BME280;63470;49.826;6.740;2023-03-14T05:27:34;97940.84;;;9.57;64.51
74722;BME280;63470;49.826;6.740;2023-03-14T05:30:05;97942.50;;;9.58;64.50
74722;BME280;63470;49.826;6.740;2023-03-14T05:32:34;97938.11;;;9.59;64.55
74722;BME280;63470;49.826;6.740;2023-03-14T05:35:05;97937.61;;;9.61;64.52
74722;BME280;63470;49.826;6.740;2023-03-14T05:37:36;97932.27;;;9.60;64.46
74722;BME280;63470;49.826;6.740;2023-03-14T05:40:07;97935.80;;;9.59;64.50
74722;BME280;63470;49.826;6.740;2023-03-14T05:42:37;97929.08;;;9.57;64.51
74722;BME280;63470;49.826;6.740;2023-03-14T05:45:08;97934.44;;;9.56;64.52
74722;BME280;63470;49.826;6.740;2023-03-14T05:47:38;97925.97;;;9.56;64.53
74722;BME280;63470;49.826;6.740;2023-03-14T05:50:09;97930.01;;;9.56;64.56
74722;BME280;63470;49.826;6.740;2023-03-14T05:52:39;97928.20;;;9.56;64.54
74722;BME280;63470;49.826;6.740;2023-03-14T05:55:09;97922.18;;;9.56;64.54
74722;BME280;63470;49.826;6.740;2023-03-14T05:57:40;97924.38;;;9.57;64.54
74722;BME280;63470;49.826;6.740;2023-03-14T06:00:11;97920.42;;;9.57;64.53
74722;BME280;63470;49.826;6.740;2023-03-14T06:02:41;97920.17;;;9.58;64.53
74722;BME280;63470;49.826;6.740;2023-03-14T06:05:14;97925.26;;;9.61;64.53
74722;BME280;63470;49.826;6.740;2023-03-14T06:07:41;97910.91;;;9.63;64.51
74722;BME280;63470;49.826;6.740;2023-03-14T06:10:12;97921.28;;;9.64;64.51
74722;BME280;63470;49.826;6.740;2023-03-14T06:12:42;97921.38;;;9.66;64.51
74722;BME280;63470;49.826;6.740;2023-03-14T06:15:13;97920.77;;;9.66;64.51
74722;BME280;63470;49.826;6.740;2023-03-14T06:17:43;97916.66;;;9.68;64.51
74722;BME280;63470;49.826;6.740;2023-03-14T06:20:14;97915.64;;;9.70;64.50
74722;BME280;63470;49.826;6.740;2023-03-14T06:22:44;97913.47;;;9.72;64.49
74722;BME280;63470;49.826;6.740;2023-03-14T06:25:15;97913.55;;;9.74;64.45
74722;BME280;63470;49.826;6.740;2023-03-14T06:27:46;97910.97;;;9.76;64.43
74722;BME280;63470;49.826;6.740;2023-03-14T06:30:17;97911.30;;;9.82;64.46
74722;BME280;63470;49.826;6.740;2023-03-14T06:32:52;97908.69;;;9.88;64.43
74722;BME280;63470;49.826;6.740;2023-03-14T06:35:18;97907.33;;;9.92;64.41
74722;BME280;63470;49.826;6.740;2023-03-14T06:37:48;97907.72;;;9.95;64.38
74722;BME280;63470;49.826;6.740;2023-03-14T06:40:19;97908.05;;;9.98;64.32
74722;BME280;63470;49.826;6.740;2023-03-14T06:42:50;97907.13;;;9.98;64.30
74722;BME280;63470;49.826;6.740;2023-03-14T06:45:20;97908.88;;;9.98;64.33
74722;BME280;63470;49.826;6.740;2023-03-14T06:47:51;97917.69;;;9.96;64.38
74722;BME280;63470;49.826;6.740;2023-03-14T06:50:23;97913.65;;;9.94;64.38
74722;BME280;63470;49.826;6.740;2023-03-14T06:52:52;97922.81;;;9.93;64.42
74722;BME280;63470;49.826;6.740;2023-03-14T06:55:25;97923.30;;;9.93;64.42
74722;BME280;63470;49.826;6.740;2023-03-14T06:57:54;97928.77;;;9.92;64.39
74722;BME280;63470;49.826;6.740;2023-03-14T07:00:23;97926.11;;;9.92;64.37
74722;BME280;63470;49.826;6.740;2023-03-14T07:02:54;97928.64;;;9.94;64.40
74722;BME280;63470;49.826;6.740;2023-03-14T07:05:24;97925.11;;;9.95;64.35
74722;BME280;63470;49.826;6.740;2023-03-14T07:08:00;97930.50;;;9.97;64.31
74722;BME280;63470;49.826;6.740;2023-03-14T07:10:25;97930.41;;;9.98;64.26
74722;BME280;63470;49.826;6.740;2023-03-14T07:12:56;97928.28;;;9.99;64.27
74722;BME280;63470;49.826;6.740;2023-03-14T07:15:26;97938.78;;;10.02;64.29
74722;BME280;63470;49.826;6.740;2023-03-14T07:17:57;97930.95;;;10.04;64.27
74722;BME280;63470;49.826;6.740;2023-03-14T07:20:27;97938.83;;;10.05;64.29
74722;BME280;63470;49.826;6.740;2023-03-14T07:23:00;97938.50;;;10.05;64.28
74722;BME280;63470;49.826;6.740;2023-03-14T07:25:29;97935.41;;;10.04;64.29
74722;BME280;63470;49.826;6.740;2023-03-14T07:27:59;97942.02;;;10.04;64.32
74722;BME280;63470;49.826;6.740;2023-03-14T07:30:30;97941.16;;;10.03;64.30
74722;BME280;63470;49.826;6.740;2023-03-14T07:33:00;97948.33;;;10.03;64.36
74722;BME280;63470;49.826;6.740;2023-03-14T07:35:31;97945.72;;;10.02;64.36
74722;BME280;63470;49.826;6.740;2023-03-14T07:38:04;97948.17;;;10.03;64.33
74722;BME280;63470;49.826;6.740;2023-03-14T07:40:32;97935.90;;;10.04;64.30
74722;BME280;63470;49.826;6.740;2023-03-14T07:43:03;97947.86;;;10.08;64.30
74722;BME280;63470;49.826;6.740;2023-03-14T07:45:33;97952.13;;;10.15;64.26
74722;BME280;63470;49.826;6.740;2023-03-14T07:48:04;97954.31;;;10.20;64.25
74722;BME280;63470;49.826;6.740;2023-03-14T07:50:35;97954.52;;;10.22;64.23
74722;BME280;63470;49.826;6.740;2023-03-14T07:53:05;97959.11;;;10.26;64.29
74722;BME280;63470;49.826;6.740;2023-03-14T07:55:36;97954.41;;;10.33;64.20
74722;BME280;63470;49.826;6.740;2023-03-14T07:58:09;97960.94;;;10.39;64.22
74722;BME280;63470;49.826;6.740;2023-03-14T08:00:37;97964.64;;;10.47;64.23
74722;BME280;63470;49.826;6.740;2023-03-14T08:03:10;97956.54;;;10.54;64.17
74722;BME280;63470;49.826;6.740;2023-03-14T08:05:38;97955.43;;;10.58;64.22
74722;BME280;63470;49.826;6.740;2023-03-14T08:08:08;97953.80;;;10.57;64.28
74722;BME280;63470;49.826;6.740;2023-03-14T08:10:39;97950.44;;;10.55;64.36
74722;BME280;63470;49.826;6.740;2023-03-14T08:13:12;97949.17;;;10.56;64.45
74722;BME280;63470;49.826;6.740;2023-03-14T08:15:40;97949.61;;;10.63;64.38
74722;BME280;63470;49.826;6.740;2023-03-14T08:18:11;97946.31;;;10.68;64.36
74722;BME280;63470;49.826;6.740;2023-03-14T08:20:41;97951.06;;;10.79;64.34
74722;BME280;63470;49.826;6.740;2023-03-14T08:23:12;97941.57;;;10.93;64.23
74722;BME280;63470;49.826;6.740;2023-03-14T08:25:43;97949.80;;;11.05;64.09
74722;BME280;63470;49.826;6.740;2023-03-14T08:28:13;97947.06;;;11.10;64.13
74722;BME280;63470;49.826;6.740;2023-03-14T08:30:44;97950.98;;;11.15;64.12
74722;BME280;63470;49.826;6.740;2023-03-14T08:33:14;97953.39;;;11.18;64.12
74722;BME280;63470;49.826;6.740;2023-03-14T08:35:44;97953.00;;;11.18;64.07
74722;BME280;63470;49.826;6.740;2023-03-14T08:38:15;97949.91;;;11.14;64.35
74722;BME280;63470;49.826;6.740;2023-03-14T08:40:45;97951.23;;;11.09;64.33
74722;BME280;63470;49.826;6.740;2023-03-14T08:43:16;97952.22;;;11.03;64.32
74722;BME280;63470;49.826;6.740;2023-03-14T08:45:47;97943.56;;;11.01;64.34
74722;BME280;63470;49.826;6.740;2023-03-14T08:48:17;97942.21;;;10.99;64.35
74722;BME280;63470;49.826;6.740;2023-03-14T08:50:48;97936.52;;;11.03;64.36
74722;BME280;63470;49.826;6.740;2023-03-14T08:53:19;97937.37;;;11.09;64.33
74722;BME280;63470;49.826;6.740;2023-03-14T08:55:55;97937.98;;;11.18;64.26
74722;BME280;63470;49.826;6.740;2023-03-14T08:58:20;97942.71;;;11.20;64.21
74722;BME280;63470;49.826;6.740;2023-03-14T09:00:51;97939.23;;;11.23;64.16
74722;BME280;63470;49.826;6.740;2023-03-14T09:03:24;97942.48;;;11.24;64.14
74722;BME280;63470;49.826;6.740;2023-03-14T09:05:52;97943.77;;;11.21;64.14
74722;BME280;63470;49.826;6.740;2023-03-14T09:08:24;97952.25;;;11.19;64.13
74722;BME280;63470;49.826;6.740;2023-03-14T09:10:53;97952.41;;;11.14;64.11
74722;BME280;63470;49.826;6.740;2023-03-14T09:13:23;97956.49;;;11.10;64.16
74722;BME280;63470;49.826;6.740;2023-03-14T09:15:55;97959.34;;;11.06;64.25
74722;BME280;63470;49.826;6.740;2023-03-14T09:18:25;97959.23;;;11.04;64.38
74722;BME280;63470;49.826;6.740;2023-03-14T09:20:56;97959.58;;;11.01;64.47
74722;BME280;63470;49.826;6.740;2023-03-14T09:23:25;97961.72;;;11.02;64.53
74722;BME280;63470;49.826;6.740;2023-03-14T09:25:57;97964.23;;;11.04;64.43
74722;BME280;63470;49.826;6.740;2023-03-14T09:28:26;97966.89;;;11.11;64.40
74722;BME280;63470;49.826;6.740;2023-03-14T09:30:56;97974.69;;;11.14;64.37
74722;BME280;63470;49.826;6.740;2023-03-14T09:33:27;97971.68;;;11.17;64.36
74722;BME280;63470;49.826;6.740;2023-03-14T09:35:59;97971.94;;;11.31;64.23
74722;BME280;63470;49.826;6.740;2023-03-14T09:38:28;97984.33;;;11.38;64.04
74722;BME280;63470;49.826;6.740;2023-03-14T09:41:01;97984.84;;;11.37;64.06
74722;BME280;63470;49.826;6.740;2023-03-14T09:43:32;97986.03;;;11.39;64.15
74722;BME280;63470;49.826;6.740;2023-03-14T09:46:01;97994.43;;;11.40;64.19
74722;BME280;63470;49.826;6.740;2023-03-14T09:48:33;98000.97;;;11.40;64.20
74722;BME280;63470;49.826;6.740;2023-03-14T09:51:05;98006.74;;;11.39;64.20
74722;BME280;63470;49.826;6.740;2023-03-14T09:53:39;98007.48;;;11.34;64.20
74722;BME280;63470;49.826;6.740;2023-03-14T09:56:02;98015.39;;;11.29;64.33
74722;BME280;63470;49.826;6.740;2023-03-14T09:58:33;98029.39;;;11.26;64.42
74722;BME280;63470;49.826;6.740;2023-03-14T10:01:04;98060.52;;;11.26;64.48
74722;BME280;63470;49.826;6.740;2023-03-14T10:03:34;98079.58;;;11.22;64.37
74722;BME280;63470;49.826;6.740;2023-03-14T10:06:12;98096.80;;;11.10;64.42
74722;BME280;63470;49.826;6.740;2023-03-14T10:08:34;98130.75;;;11.05;64.52
74722;BME280;63470;49.826;6.740;2023-03-14T10:11:05;98140.56;;;11.02;64.56
74722;BME280;63470;49.826;6.740;2023-03-14T10:13:50;98160.80;;;11.08;64.69
74722;BME280;63470;49.826;6.740;2023-03-14T10:16:07;98176.66;;;11.13;64.62
74722;BME280;63470;49.826;6.740;2023-03-14T10:18:44;98190.38;;;11.04;64.71
74722;BME280;63470;49.826;6.740;2023-03-14T10:21:26;98202.17;;;11.04;64.81
74722;BME280;63470;49.826;6.740;2023-03-14T10:23:38;98228.11;;;11.09;64.76
74722;BME280;63470;49.826;6.740;2023-03-14T10:26:15;98241.59;;;11.09;64.72
74722;BME280;63470;49.826;6.740;2023-03-14T10:28:42;98261.97;;;11.15;64.75
74722;BME280;63470;49.826;6.740;2023-03-14T10:31:09;98279.30;;;11.29;64.58
74722;BME280;63470;49.826;6.740;2023-03-14T10:33:40;98281.59;;;11.30;64.45
74722;BME280;63470;49.826;6.740;2023-03-14T10:36:23;98301.78;;;11.14;64.65
74722;BME280;63470;49.826;6.740;2023-03-14T10:38:41;98319.61;;;11.04;64.81
74722;BME280;63470;49.826;6.740;2023-03-14T10:41:25;98327.66;;;11.01;64.88
74722;BME280;63470;49.826;6.740;2023-03-14T10:43:43;98324.81;;;11.04;64.90
74722;BME280;63470;49.826;6.740;2023-03-14T10:46:17;98336.78;;;11.17;64.81
74722;BME280;63470;49.826;6.740;2023-03-14T10:48:44;98344.77;;;11.31;64.67
74722;BME280;63470;49.826;6.740;2023-03-14T10:51:30;98346.80;;;11.40;64.57
74722;BME280;63470;49.826;6.740;2023-03-14T10:53:49;98349.31;;;11.49;64.51
74722;BME280;63470;49.826;6.740;2023-03-14T10:56:19;98377.86;;;11.38;64.48
74722;BME280;63470;49.826;6.740;2023-03-14T10:58:48;98375.99;;;11.28;64.66
74722;BME280;63470;49.826;6.740;2023-03-14T11:01:47;98383.21;;;11.23;64.79
74722;BME280;63470;49.826;6.740;2023-03-14T11:03:54;98389.09;;;11.31;64.81
74722;BME280;63470;49.826;6.740;2023-03-14T11:08:57;98403.88;;;11.47;64.41
74722;BME280;63470;49.826;6.740;2023-03-14T11:11:21;98410.64;;;11.42;64.52
74722;BME280;63470;49.826;6.740;2023-03-14T11:14:06;98432.32;;;11.43;64.49
74722;BME280;63470;49.826;6.740;2023-03-14T11:16:31;98436.07;;;11.59;64.47
74722;BME280;63470;49.826;6.740;2023-03-14T11:21:35;98450.08;;;12.92;63.53
74722;BME280;63470;49.826;6.740;2023-03-14T11:28:57;98458.14;;;16.62;60.21
74722;BME280;63470;49.826;6.740;2023-03-14T11:31:26;98475.07;;;16.19;60.85
74722;BME280;63470;49.826;6.740;2023-03-14T11:34:28;98483.65;;;15.59;62.25
74722;BME280;63470;49.826;6.740;2023-03-14T11:36:26;98500.65;;;15.57;62.83
74722;BME280;63470;49.826;6.740;2023-03-14T11:38:58;98512.22;;;15.57;63.06
74722;BME280;63470;49.826;6.740;2023-03-14T11:41:39;98532.12;;;15.47;63.21
74722;BME280;63470;49.826;6.740;2023-03-14T11:43:57;98546.72;;;14.84;63.67
74722;BME280;63470;49.826;6.740;2023-03-14T11:46:26;98557.09;;;13.97;63.98
74722;BME280;63470;49.826;6.740;2023-03-14T11:51:27;98573.84;;;11.92;66.03
74722;BME280;63470;49.826;6.740;2023-03-14T11:54:01;98582.80;;;11.37;66.61
74722;BME280;63470;49.826;6.740;2023-03-14T11:58:57;98610.43;;;11.15;67.43
74722;BME280;63470;49.826;6.740;2023-03-14T12:01:33;98620.23;;;11.42;66.81
74722;BME280;63470;49.826;6.740;2023-03-14T12:04:07;98623.13;;;11.58;66.25
74722;BME280;63470;49.826;6.740;2023-03-14T12:06:45;98636.92;;;11.59;65.60
74722;BME280;63470;49.826;6.740;2023-03-14T12:09:04;98652.23;;;11.37;65.55
74722;BME280;63470;49.826;6.740;2023-03-14T12:11:51;98665.55;;;10.96;65.62
74722;BME280;63470;49.826;6.740;2023-03-14T12:14:00;98668.30;;;10.64;66.04
74722;BME280;63470;49.826;6.740;2023-03-14T12:16:34;98678.56;;;10.53;66.15
74722;BME280;63470;49.826;6.740;2023-03-14T12:21:49;98695.81;;;11.06;66.00
74722;BME280;63470;49.826;6.740;2023-03-14T12:24:00;98700.66;;;11.52;65.40
74722;BME280;63470;49.826;6.740;2023-03-14T12:26:48;98694.78;;;11.82;64.86
74722;BME280;63470;49.826;6.740;2023-03-14T12:29:17;98701.55;;;11.98;64.52
74722;BME280;63470;49.826;6.740;2023-03-14T12:31:36;98702.14;;;11.93;64.40
74722;BME280;63470;49.826;6.740;2023-03-14T12:36:59;98706.75;;;11.51;64.84
74722;BME280;63470;49.826;6.740;2023-03-14T12:41:51;98735.17;;;11.07;65.32
74722;BME280;63470;49.826;6.740;2023-03-14T12:46:35;98750.64;;;10.96;65.31
74722;BME280;63470;49.826;6.740;2023-03-14T12:49:08;98746.83;;;11.16;65.24
74722;BME280;63470;49.826;6.740;2023-03-14T12:51:42;98742.19;;;11.66;65.12
74722;BME280;63470;49.826;6.740;2023-03-14T12:54:40;98741.73;;;12.94;64.35
74722;BME280;63470;49.826;6.740;2023-03-14T12:59:28;98742.64;;;15.21;61.76
74722;BME280;63470;49.826;6.740;2023-03-14T13:01:55;98746.80;;;15.17;61.73
74722;BME280;63470;49.826;6.740;2023-03-14T13:04:12;98758.90;;;15.04;62.27
74722;BME280;63470;49.826;6.740;2023-03-14T13:06:51;98760.77;;;14.96;62.66
74722;BME280;63470;49.826;6.740;2023-03-14T13:09:36;98762.05;;;14.60;63.15
74722;BME280;63470;49.826;6.740;2023-03-14T13:11:42;98756.30;;;14.23;63.70
74722;BME280;63470;49.826;6.740;2023-03-14T13:14:15;98770.88;;;13.91;63.88
74722;BME280;63470;49.826;6.740;2023-03-14T13:16:42;98780.06;;;13.37;64.36
74722;BME280;63470;49.826;6.740;2023-03-14T13:19:23;98779.46;;;12.72;64.94
74722;BME280;63470;49.826;6.740;2023-03-14T13:21:43;98793.62;;;12.17;65.56
74722;BME280;63470;49.826;6.740;2023-03-14T13:24:24;98793.25;;;11.89;65.92
74722;BME280;63470;49.826;6.740;2023-03-14T13:26:47;98801.02;;;11.87;65.78
74722;BME280;63470;49.826;6.740;2023-03-14T13:29:17;98821.02;;;11.96;65.43
74722;BME280;63470;49.826;6.740;2023-03-14T13:31:44;98820.27;;;12.18;65.20
74722;BME280;63470;49.826;6.740;2023-03-14T13:34:16;98832.62;;;12.41;65.03
74722;BME280;63470;49.826;6.740;2023-03-14T13:36:43;98848.00;;;12.63;64.25
74722;BME280;63470;49.826;6.740;2023-03-14T13:39:19;98834.44;;;12.56;64.08
74722;BME280;63470;49.826;6.740;2023-03-14T13:41:45;98838.88;;;12.35;64.25
74722;BME280;63470;49.826;6.740;2023-03-14T13:44:36;98844.33;;;12.17;64.48
74722;BME280;63470;49.826;6.740;2023-03-14T13:46:48;98851.06;;;12.07;64.52
74722;BME280;63470;49.826;6.740;2023-03-14T13:49:24;98847.90;;;11.92;64.55